sensor_id;sensor_type;location;lat;lon;timestamp;pressure;altitude;pressure_sealevel;temperature;humidity
53699;BME280;68408;53.952;27.612;2024-03-17T00:04:59;1012.5;;;11.1;56.7
53699;BME280;68408;53.952;27.612;2024-03-17T00:10:11;1012.5;;;11.1;56.9
53699;BME280;68408;53.952;27.612;2024-03-17T00:14:45;1012.5;;;11.1;56.9
53699;BME280;68408;53.952;27.612;2024-03-17T00:19:31;1012.4;;;11.2;56.9
53699;BME280;68408;53.952;27.612;2024-03-17T00:24:49;1012.4;;;11.1;57
53699;BME280;68408;53.952;27.612;2024-03-17T00:29:51;1012.3;;;11.2;57
53699;BME280;68408;53.952;27.612;2024-03-17T00:34:31;1012.3;;;11.2;57
53699;BME280;68408;53.952;27.612;2024-03-17T00:39:31;1012.2;;;11.2;57.3
53699;BME280;68408;53.952;27.612;2024-03-17T00:44:31;1012.2;;;11.2;57.4
53699;BME280;68408;53.952;27.612;2024-03-17T00:49:55;1012.1;;;11.2;57.5
53699;BME280;68408;53.952;27.612;2024-03-17T00:54:39;1012.1;;;11.1;57.8
53699;BME280;68408;53.952;27.612;2024-03-17T01:00:09;1012.1;;;11.1;57.9
53699;BME280;68408;53.952;27.612;2024-03-17T01:04:59;1012.1;;;11.1;57.9
53699;BME280;68408;53.952;27.612;2024-03-17T01:09:39;1012;;;11.2;57.9
53699;BME280;68408;53.952;27.612;2024-03-17T01:14:37;1012;;;11.2;58
53699;BME280;68408;53.952;27.612;2024-03-17T01:20:09;1011.9;;;11.2;58.1
53699;BME280;68408;53.952;27.612;2024-03-17T01:24:59;1011.9;;;11.2;58.1
53699;BME280;68408;53.952;27.612;2024-03-17T01:29:39;1011.9;;;11.2;58.3
53699;BME280;68408;53.952;27.612;2024-03-17T01:34:31;1011.8;;;11.2;58.4
53699;BME280;68408;53.952;27.612;2024-03-17T01:40:01;1011.8;;;11.1;58.6
53699;BME280;68408;53.952;27.612;2024-03-17T01:45:25;1011.7;;;11.1;58.7
53699;BME280;68408;53.952;27.612;2024-03-17T01:50:01;1011.7;;;11.1;58.7
53699;BME280;68408;53.952;27.612;2024-03-17T01:54:31;1011.7;;;11.1;58.7
53699;BME280;68408;53.952;27.612;2024-03-17T01:59:57;1011.8;;;11.1;58.7
53699;BME280;68408;53.952;27.612;2024-03-17T02:04:39;1011.7;;;11;58.9
53699;BME280;68408;53.952;27.612;2024-03-17T02:09:31;1011.7;;;11;59
53699;BME280;68408;53.952;27.612;2024-03-17T02:14:39;1011.7;;;11;58.9
53699;BME280;68408;53.952;27.612;2024-03-17T02:19:31;1011.7;;;11.1;58.8
53699;BME280;68408;53.952;27.612;2024-03-17T02:24:57;1011.7;;;11;58.8
53699;BME280;68408;53.952;27.612;2024-03-17T02:29:47;1011.6;;;11;58.9
53699;BME280;68408;53.952;27.612;2024-03-17T02:35:11;1011.5;;;11;59.1
53699;BME280;68408;53.952;27.612;2024-03-17T02:39:53;1011.5;;;11;59.1
53699;BME280;68408;53.952;27.612;2024-03-17T02:44:57;1011.5;;;11;59.2
53699;BME280;68408;53.952;27.612;2024-03-17T02:49:31;1011.4;;;10.9;59.5
53699;BME280;68408;53.952;27.612;2024-03-17T02:55:11;1011.4;;;10.8;60
53699;BME280;68408;53.952;27.612;2024-03-17T03:00:01;1011.4;;;10.8;60
53699;BME280;68408;53.952;27.612;2024-03-17T03:04:39;1011.4;;;10.9;60
53699;BME280;68408;53.952;27.612;2024-03-17T03:09:51;1011.4;;;10.9;60
53699;BME280;68408;53.952;27.612;2024-03-17T03:15:01;1011.4;;;10.9;60.2
53699;BME280;68408;53.952;27.612;2024-03-17T03:20:11;1011.4;;;10.9;60.5
53699;BME280;68408;53.952;27.612;2024-03-17T03:24:39;1011.4;;;10.9;60.5
53699;BME280;68408;53.952;27.612;2024-03-17T03:29:59;1011.5;;;11;60.3
53699;BME280;68408;53.952;27.612;2024-03-17T03:34:39;1011.4;;;11.1;60.2
53699;BME280;68408;53.952;27.612;2024-03-17T03:39:39;1011.3;;;11.1;60.2
53699;BME280;68408;53.952;27.612;2024-03-17T03:44:37;1011.3;;;11.2;59.9
53699;BME280;68408;53.952;27.612;2024-03-17T03:49:31;1011.3;;;11.2;59.9
53699;BME280;68408;53.952;27.612;2024-03-17T03:54:31;1011.3;;;11.2;60
53699;BME280;68408;53.952;27.612;2024-03-17T04:00:09;1011.3;;;11.2;60.1
53699;BME280;68408;53.952;27.612;2024-03-17T04:04:51;1011.3;;;11.2;60.1
53699;BME280;68408;53.952;27.612;2024-03-17T04:10:09;1011.3;;;11.2;60.3
53699;BME280;68408;53.952;27.612;2024-03-17T04:15:09;1011.2;;;11.2;60.3
53699;BME280;68408;53.952;27.612;2024-03-17T04:20:01;1011.2;;;11.2;60.3
53699;BME280;68408;53.952;27.612;2024-03-17T04:25:09;1011.2;;;11.2;60.4
53699;BME280;68408;53.952;27.612;2024-03-17T04:29:57;1011.2;;;11.2;60.4
53699;BME280;68408;53.952;27.612;2024-03-17T04:34:59;1011.2;;;11.2;60.4
53699;BME280;68408;53.952;27.612;2024-03-17T04:39:55;1011.2;;;11.2;60.6
53699;BME280;68408;53.952;27.612;2024-03-17T04:44:55;1011.2;;;11.2;60.8
53699;BME280;68408;53.952;27.612;2024-03-17T04:49:59;1011.2;;;11.2;60.8
53699;BME280;68408;53.952;27.612;2024-03-17T04:55:09;1011.3;;;11.3;60.8
53699;BME280;68408;53.952;27.612;2024-03-17T04:59:37;1011.3;;;11.3;60.8
53699;BME280;68408;53.952;27.612;2024-03-17T05:05:09;1011.2;;;11.3;60.9
53699;BME280;68408;53.952;27.612;2024-03-17T05:09:31;1011.2;;;11.3;60.9
53699;BME280;68408;53.952;27.612;2024-03-17T05:14:39;1011.2;;;11.3;60.8
53699;BME280;68408;53.952;27.612;2024-03-17T05:19:49;1011.2;;;11.3;60.9
53699;BME280;68408;53.952;27.612;2024-03-17T05:24:37;1011.1;;;11.3;61.1
53699;BME280;68408;53.952;27.612;2024-03-17T05:29:49;1011;;;11.3;61
53699;BME280;68408;53.952;27.612;2024-03-17T05:34:37;1011;;;11.4;61
53699;BME280;68408;53.952;27.612;2024-03-17T05:39:53;1011;;;11.4;61
53699;BME280;68408;53.952;27.612;2024-03-17T05:44:53;1011;;;11.5;60.9
53699;BME280;68408;53.952;27.612;2024-03-17T05:50:07;1011;;;11.7;60.4
53699;BME280;68408;53.952;27.612;2024-03-17T05:54:37;1011;;;11.7;60.4
53699;BME280;68408;53.952;27.612;2024-03-17T06:00:01;1010.9;;;11.8;60.3
53699;BME280;68408;53.952;27.612;2024-03-17T06:04:33;1011;;;11.8;60.3
53699;BME280;68408;53.952;27.612;2024-03-17T06:10:01;1011;;;11.8;60.2
53699;BME280;68408;53.952;27.612;2024-03-17T06:14:31;1011;;;11.9;60.1
53699;BME280;68408;53.952;27.612;2024-03-17T06:19:57;1011.1;;;12;60.1
53699;BME280;68408;53.952;27.612;2024-03-17T06:25:01;1011.1;;;11.9;60.1
53699;BME280;68408;53.952;27.612;2024-03-17T06:30:12;1011.2;;;11.8;60.7
53699;BME280;68408;53.952;27.612;2024-03-17T06:34:51;1011.2;;;11.8;60.7
53699;BME280;68408;53.952;27.612;2024-03-17T06:40:08;1011.1;;;11.8;61
53699;BME280;68408;53.952;27.612;2024-03-17T06:44:47;1011.1;;;11.8;61
53699;BME280;68408;53.952;27.612;2024-03-17T06:49:39;1011.1;;;12;60.9
53699;BME280;68408;53.952;27.612;2024-03-17T06:54:31;1011.1;;;12;60.7
53699;BME280;68408;53.952;27.612;2024-03-17T07:00:09;1011.2;;;12;60.9
53699;BME280;68408;53.952;27.612;2024-03-17T07:04:51;1011.2;;;12;60.9
53699;BME280;68408;53.952;27.612;2024-03-17T07:09:43;1011.2;;;11.9;61.3
53699;BME280;68408;53.952;27.612;2024-03-17T07:14:53;1011.2;;;11.9;61.6
53699;BME280;68408;53.952;27.612;2024-03-17T07:19:31;1011.2;;;12;61.6
53699;BME280;68408;53.952;27.612;2024-03-17T07:25:09;1011.3;;;11.9;62.1
53699;BME280;68408;53.952;27.612;2024-03-17T07:29:45;1011.3;;;11.9;62.1
53699;BME280;68408;53.952;27.612;2024-03-17T07:35:07;1011.2;;;11.9;62.1
53699;BME280;68408;53.952;27.612;2024-03-17T07:39:31;1011.2;;;11.9;62.1
53699;BME280;68408;53.952;27.612;2024-03-17T07:45:01;1011.3;;;11.7;62.5
53699;BME280;68408;53.952;27.612;2024-03-17T07:49:53;1011.3;;;11.8;62.8
53699;BME280;68408;53.952;27.612;2024-03-17T07:54:41;1011.3;;;11.8;62.8
53699;BME280;68408;53.952;27.612;2024-03-17T08:00:10;1011.1;;;12.1;62.6
53699;BME280;68408;53.952;27.612;2024-03-17T08:04:59;1011.1;;;12.1;62.6
53699;BME280;68408;53.952;27.612;2024-03-17T08:09:31;1011.2;;;12.2;62.3
53699;BME280;68408;53.952;27.612;2024-03-17T08:15:09;1011.2;;;12.2;62.5
53699;BME280;68408;53.952;27.612;2024-03-17T08:20:10;1011.4;;;12;62
53699;BME280;68408;53.952;27.612;2024-03-17T08:24:59;1011.4;;;12;62
53699;BME280;68408;53.952;27.612;2024-03-17T08:29:31;1011.5;;;11.5;61.5
53699;BME280;68408;53.952;27.612;2024-03-17T08:34:37;1011.6;;;11.2;61.9
53699;BME280;68408;53.952;27.612;2024-03-17T08:39:37;1011.7;;;11;62.2
53699;BME280;68408;53.952;27.612;2024-03-17T08:44:53;1011.7;;;10.8;62.5
53699;BME280;68408;53.952;27.612;2024-03-17T08:49:32;1011.8;;;10.6;62.7
53699;BME280;68408;53.952;27.612;2024-03-17T08:54:45;1011.8;;;10.4;62.3
53699;BME280;68408;53.952;27.612;2024-03-17T08:59:53;1011.9;;;10.2;62.3
53699;BME280;68408;53.952;27.612;2024-03-17T09:04:45;1011.9;;;10;62.5
53699;BME280;68408;53.952;27.612;2024-03-17T09:09:57;1012;;;9.8;62.5
53699;BME280;68408;53.952;27.612;2024-03-17T09:14:46;1012.1;;;9.7;62.5
53699;BME280;68408;53.952;27.612;2024-03-17T09:19:55;1012.1;;;9.6;62.5
53699;BME280;68408;53.952;27.612;2024-03-17T09:24:31;1012.1;;;9.6;61.9
53699;BME280;68408;53.952;27.612;2024-03-17T09:29:55;1012;;;9.6;61.4
53699;BME280;68408;53.952;27.612;2024-03-17T09:34:59;1012;;;9.5;61.5
53699;BME280;68408;53.952;27.612;2024-03-17T09:39:57;1012;;;9.5;62
53699;BME280;68408;53.952;27.612;2024-03-17T09:44:48;1012.2;;;9.5;62.3
53699;BME280;68408;53.952;27.612;2024-03-17T09:49:57;1012.2;;;9.5;61.8
53699;BME280;68408;53.952;27.612;2024-03-17T09:55:08;1012.3;;;9.4;62
53699;BME280;68408;53.952;27.612;2024-03-17T09:59:50;1012.3;;;9.4;62
53699;BME280;68408;53.952;27.612;2024-03-17T10:04:59;1012.3;;;9.3;62.4
53699;BME280;68408;53.952;27.612;2024-03-17T10:09:31;1012.3;;;9.3;62.7
53699;BME280;68408;53.952;27.612;2024-03-17T10:14:31;1012.3;;;9.4;62.7
53699;BME280;68408;53.952;27.612;2024-03-17T10:19:31;1012.2;;;9.4;62.4
53699;BME280;68408;53.952;27.612;2024-03-17T10:24:39;1012.2;;;9.6;62
53699;BME280;68408;53.952;27.612;2024-03-17T10:29:49;1012.2;;;9.8;60.9
53699;BME280;68408;53.952;27.612;2024-03-17T10:35:10;1012.2;;;9.8;59.3
53699;BME280;68408;53.952;27.612;2024-03-17T10:39:57;1012.2;;;9.8;59.3
53699;BME280;68408;53.952;27.612;2024-03-17T10:45:08;1012.3;;;9.9;58.6
53699;BME280;68408;53.952;27.612;2024-03-17T10:50:08;1012.3;;;10.1;58
53699;BME280;68408;53.952;27.612;2024-03-17T10:54:52;1012.3;;;10.1;58
53699;BME280;68408;53.952;27.612;2024-03-17T10:59:48;1012.4;;;10.1;57.3
53699;BME280;68408;53.952;27.612;2024-03-17T11:04:33;1012.3;;;10;57.5
53699;BME280;68408;53.952;27.612;2024-03-17T11:09:41;1012.3;;;10;58
53699;BME280;68408;53.952;27.612;2024-03-17T11:14:31;1012.3;;;9.9;58.7
53699;BME280;68408;53.952;27.612;2024-03-17T11:20:08;1012.3;;;9.9;58.9
53699;BME280;68408;53.952;27.612;2024-03-17T11:25:36;1012.4;;;9.9;58.8
53699;BME280;68408;53.952;27.612;2024-03-17T11:30:43;1012.5;;;10;58.8
53699;BME280;68408;53.952;27.612;2024-03-17T11:34:32;1012.5;;;10;58.8
53699;BME280;68408;53.952;27.612;2024-03-17T11:39:50;1012.5;;;10;58.8
53699;BME280;68408;53.952;27.612;2024-03-17T11:44:31;1012.5;;;9.9;58.2
53699;BME280;68408;53.952;27.612;2024-03-17T11:49:40;1012.6;;;9.7;57
53699;BME280;68408;53.952;27.612;2024-03-17T11:54:32;1012.6;;;9.7;56
53699;BME280;68408;53.952;27.612;2024-03-17T11:59:40;1012.6;;;9.9;55.3
53699;BME280;68408;53.952;27.612;2024-03-17T12:04:31;1012.6;;;10.3;54.8
53699;BME280;68408;53.952;27.612;2024-03-17T12:10:10;1012.5;;;11;52.7
53699;BME280;68408;53.952;27.612;2024-03-17T12:15:00;1012.5;;;11;52.7
53699;BME280;68408;53.952;27.612;2024-03-17T12:20:16;1012.5;;;11.2;51.5
53699;BME280;68408;53.952;27.612;2024-03-17T12:25:14;1012.5;;;11.4;51
53699;BME280;68408;53.952;27.612;2024-03-17T12:29:46;1012.5;;;11.4;51
53699;BME280;68408;53.952;27.612;2024-03-17T12:35:12;1012.5;;;12.1;48.4
53699;BME280;68408;53.952;27.612;2024-03-17T12:40:17;1012.5;;;12.1;47.7
53699;BME280;68408;53.952;27.612;2024-03-17T12:44:47;1012.5;;;12.1;47.7
53699;BME280;68408;53.952;27.612;2024-03-17T12:49:48;1012.5;;;11.9;46.9
53699;BME280;68408;53.952;27.612;2024-03-17T12:55:04;1012.5;;;11.7;47.5
53699;BME280;68408;53.952;27.612;2024-03-17T12:59:50;1012.5;;;11.9;47.6
53699;BME280;68408;53.952;27.612;2024-03-17T13:05:15;1012.5;;;12.2;46.7
53699;BME280;68408;53.952;27.612;2024-03-17T13:09:43;1012.5;;;12.2;46.7
53699;BME280;68408;53.952;27.612;2024-03-17T13:15:10;1012.5;;;12.5;44.2
53699;BME280;68408;53.952;27.612;2024-03-17T13:19:51;1012.5;;;12.5;44.2
53699;BME280;68408;53.952;27.612;2024-03-17T13:24:47;1012.4;;;12.6;43.8
53699;BME280;68408;53.952;27.612;2024-03-17T13:29:32;1012.4;;;12.9;43.2
53699;BME280;68408;53.952;27.612;2024-03-17T13:34:58;1012.4;;;13;42.6
53699;BME280;68408;53.952;27.612;2024-03-17T13:39:40;1012.4;;;12.9;42
53699;BME280;68408;53.952;27.612;2024-03-17T13:44:38;1012.4;;;12.7;42.1
53699;BME280;68408;53.952;27.612;2024-03-17T13:49:34;1012.4;;;12.4;42.5
53699;BME280;68408;53.952;27.612;2024-03-17T13:54:32;1012.4;;;12.4;42.2
53699;BME280;68408;53.952;27.612;2024-03-17T14:00:08;1012.4;;;12.2;41.7
53699;BME280;68408;53.952;27.612;2024-03-17T14:04:38;1012.4;;;12.2;41.7
53699;BME280;68408;53.952;27.612;2024-03-17T14:10:08;1012.4;;;12.3;41.8
53699;BME280;68408;53.952;27.612;2024-03-17T14:14:32;1012.4;;;12.3;41.8
53699;BME280;68408;53.952;27.612;2024-03-17T14:20:02;1012.4;;;12.3;41.8
53699;BME280;68408;53.952;27.612;2024-03-17T14:24:32;1012.4;;;12.4;40.8
53699;BME280;68408;53.952;27.612;2024-03-17T14:29:48;1012.4;;;12.2;41.2
53699;BME280;68408;53.952;27.612;2024-03-17T14:35:00;1012.4;;;12.1;41.1
53699;BME280;68408;53.952;27.612;2024-03-17T14:39:34;1012.4;;;12;40.7
53699;BME280;68408;53.952;27.612;2024-03-17T14:44:33;1012.4;;;11.9;40.8
53699;BME280;68408;53.952;27.612;2024-03-17T14:49:58;1012.4;;;11.9;40.8
53699;BME280;68408;53.952;27.612;2024-03-17T14:55:10;1012.3;;;11.9;41.5
53699;BME280;68408;53.952;27.612;2024-03-17T15:00:00;1012.3;;;11.9;41.5
53699;BME280;68408;53.952;27.612;2024-03-17T15:04:38;1012.3;;;11.8;41.6
53699;BME280;68408;53.952;27.612;2024-03-17T15:09:40;1012.3;;;11.7;41.9
53699;BME280;68408;53.952;27.612;2024-03-17T15:14:32;1012.3;;;11.8;41.9
53699;BME280;68408;53.952;27.612;2024-03-17T15:19:46;1012.3;;;11.8;42
53699;BME280;68408;53.952;27.612;2024-03-17T15:24:40;1012.3;;;11.7;41.6
53699;BME280;68408;53.952;27.612;2024-03-17T15:29:46;1012.4;;;11.6;41.6
53699;BME280;68408;53.952;27.612;2024-03-17T15:35:10;1012.4;;;11.3;41.8
53699;BME280;68408;53.952;27.612;2024-03-17T15:39:38;1012.4;;;11.3;41.8
53699;BME280;68408;53.952;27.612;2024-03-17T15:45:10;1012.5;;;11;41.9
53699;BME280;68408;53.952;27.612;2024-03-17T15:49:40;1012.5;;;11;41.9
53699;BME280;68408;53.952;27.612;2024-03-17T15:54:54;1012.5;;;10.9;42.2
53699;BME280;68408;53.952;27.612;2024-03-17T15:59:32;1012.6;;;10.9;42.4
53699;BME280;68408;53.952;27.612;2024-03-17T16:04:56;1012.6;;;10.8;42.5
53699;BME280;68408;53.952;27.612;2024-03-17T16:10:16;1012.8;;;10.6;42.6
53699;BME280;68408;53.952;27.612;2024-03-17T16:15:02;1012.8;;;10.6;42.6
53699;BME280;68408;53.952;27.612;2024-03-17T16:19:40;1012.9;;;10.5;42.7
53699;BME280;68408;53.952;27.612;2024-03-17T16:25:12;1012.9;;;10.2;43.5
53699;BME280;68408;53.952;27.612;2024-03-17T16:30:12;1013;;;10.1;43.9
53699;BME280;68408;53.952;27.612;2024-03-17T16:35:02;1013;;;10.1;43.9
53699;BME280;68408;53.952;27.612;2024-03-17T16:39:32;1013;;;9.9;44.3
53699;BME280;68408;53.952;27.612;2024-03-17T16:44:49;1013;;;9.8;44.4
53699;BME280;68408;53.952;27.612;2024-03-17T16:49:32;1013.1;;;9.8;44.7
53699;BME280;68408;53.952;27.612;2024-03-17T16:54:32;1013.1;;;9.7;44.9
53699;BME280;68408;53.952;27.612;2024-03-17T16:59:40;1013.1;;;9.7;44.8
53699;BME280;68408;53.952;27.612;2024-03-17T17:04:40;1013.1;;;9.6;44.9
53699;BME280;68408;53.952;27.612;2024-03-17T17:09:50;1013.1;;;9.6;44.8
53699;BME280;68408;53.952;27.612;2024-03-17T17:14:40;1013.1;;;9.6;44.8
53699;BME280;68408;53.952;27.612;2024-03-17T17:20:12;1013.2;;;9.5;44.7
53699;BME280;68408;53.952;27.612;2024-03-17T17:25:02;1013.2;;;9.5;44.7
53699;BME280;68408;53.952;27.612;2024-03-17T17:29:58;1013.2;;;9.5;44.8
53699;BME280;68408;53.952;27.612;2024-03-17T17:34:40;1013.2;;;9.5;44.8
53699;BME280;68408;53.952;27.612;2024-03-17T17:39:50;1013.3;;;9.5;44.9
53699;BME280;68408;53.952;27.612;2024-03-17T17:44:50;1013.3;;;9.4;44.9
53699;BME280;68408;53.952;27.612;2024-03-17T17:49:40;1013.3;;;9.3;45
53699;BME280;68408;53.952;27.612;2024-03-17T17:54:44;1013.3;;;9.3;45.1
53699;BME280;68408;53.952;27.612;2024-03-17T18:00:02;1013.4;;;9.3;45.4
53699;BME280;68408;53.952;27.612;2024-03-17T18:05:12;1013.4;;;9.2;45.8
53699;BME280;68408;53.952;27.612;2024-03-17T18:09:44;1013.4;;;9.2;45.8
53699;BME280;68408;53.952;27.612;2024-03-17T18:15:02;1013.4;;;9.2;46.1
53699;BME280;68408;53.952;27.612;2024-03-17T18:19:40;1013.4;;;9.2;46.2
53699;BME280;68408;53.952;27.612;2024-03-17T18:24:32;1013.4;;;9.1;46.3
53699;BME280;68408;53.952;27.612;2024-03-17T18:29:40;1013.4;;;9.1;46.5
53699;BME280;68408;53.952;27.612;2024-03-17T18:34:32;1013.4;;;9.1;46.7
53699;BME280;68408;53.952;27.612;2024-03-17T18:39:40;1013.5;;;9;47
53699;BME280;68408;53.952;27.612;2024-03-17T18:45:12;1013.5;;;8.9;47.5
53699;BME280;68408;53.952;27.612;2024-03-17T18:50:02;1013.5;;;8.9;47.5
53699;BME280;68408;53.952;27.612;2024-03-17T18:55:13;1013.5;;;8.9;47.8
53699;BME280;68408;53.952;27.612;2024-03-17T19:00:12;1013.5;;;8.9;48
53699;BME280;68408;53.952;27.612;2024-03-17T19:04:54;1013.5;;;8.9;48
53699;BME280;68408;53.952;27.612;2024-03-17T19:10:12;1013.5;;;8.8;48.4
53699;BME280;68408;53.952;27.612;2024-03-17T19:15:12;1013.5;;;8.8;48.6
53699;BME280;68408;53.952;27.612;2024-03-17T19:20:02;1013.5;;;8.8;48.6
53699;BME280;68408;53.952;27.612;2024-03-17T19:24:40;1013.5;;;8.7;48.8
53699;BME280;68408;53.952;27.612;2024-03-17T19:29:58;1013.5;;;8.7;48.9
53699;BME280;68408;53.952;27.612;2024-03-17T19:35:02;1013.5;;;8.7;49.1
53699;BME280;68408;53.952;27.612;2024-03-17T19:40:12;1013.5;;;8.6;49.5
53699;BME280;68408;53.952;27.612;2024-03-17T19:44:52;1013.5;;;8.6;49.5
53699;BME280;68408;53.952;27.612;2024-03-17T19:50:12;1013.5;;;8.5;50
53699;BME280;68408;53.952;27.612;2024-03-17T19:54:44;1013.5;;;8.5;50
53699;BME280;68408;53.952;27.612;2024-03-17T19:59:32;1013.6;;;8.5;50.3
53699;BME280;68408;53.952;27.612;2024-03-17T20:05:02;1013.6;;;8.4;50.7
53699;BME280;68408;53.952;27.612;2024-03-17T20:09:32;1013.7;;;8.4;50.9
53699;BME280;68408;53.952;27.612;2024-03-17T20:14:40;1013.7;;;8.4;51.2
53699;BME280;68408;53.952;27.612;2024-03-17T20:20:12;1013.7;;;8.2;52.1
53699;BME280;68408;53.952;27.612;2024-03-17T20:25:02;1013.7;;;8.2;52.1
53699;BME280;68408;53.952;27.612;2024-03-17T20:30:12;1013.8;;;8;53.2
53699;BME280;68408;53.952;27.612;2024-03-17T20:35:12;1013.8;;;7.8;54
53699;BME280;68408;53.952;27.612;2024-03-17T20:39:48;1013.8;;;7.8;54
53699;BME280;68408;53.952;27.612;2024-03-17T20:45:12;1013.8;;;7.6;55.1
53699;BME280;68408;53.952;27.612;2024-03-17T20:49:50;1013.8;;;7.6;55.1
53699;BME280;68408;53.952;27.612;2024-03-17T20:55:12;1013.9;;;7.5;55.9
53699;BME280;68408;53.952;27.612;2024-03-17T20:59:48;1013.9;;;7.5;55.9
53699;BME280;68408;53.952;27.612;2024-03-17T21:04:58;1013.9;;;7.5;56.2
53699;BME280;68408;53.952;27.612;2024-03-17T21:10:02;1013.9;;;7.5;56.4
53699;BME280;68408;53.952;27.612;2024-03-17T21:15:12;1013.9;;;7.5;56.8
53699;BME280;68408;53.952;27.612;2024-03-17T21:19:52;1013.9;;;7.5;56.8
53699;BME280;68408;53.952;27.612;2024-03-17T21:25:12;1013.9;;;7.4;57.5
53699;BME280;68408;53.952;27.612;2024-03-17T21:29:46;1013.9;;;7.4;57.5
53699;BME280;68408;53.952;27.612;2024-03-17T21:34:32;1013.9;;;7.4;57.6
53699;BME280;68408;53.952;27.612;2024-03-17T21:40:02;1013.9;;;7.4;57.7
53699;BME280;68408;53.952;27.612;2024-03-17T21:44:40;1013.8;;;7.4;57.8
53699;BME280;68408;53.952;27.612;2024-03-17T21:49:40;1013.8;;;7.5;57.7
53699;BME280;68408;53.952;27.612;2024-03-17T21:54:32;1013.9;;;7.5;57.6
53699;BME280;68408;53.952;27.612;2024-03-17T21:59:34;1013.9;;;7.4;57.8
53699;BME280;68408;53.952;27.612;2024-03-17T22:04:32;1013.9;;;7.3;57.9
53699;BME280;68408;53.952;27.612;2024-03-17T22:10:12;1014;;;7.3;57.9
53699;BME280;68408;53.952;27.612;2024-03-17T22:14:40;1014;;;7.3;57.9
53699;BME280;68408;53.952;27.612;2024-03-17T22:20:12;1014.1;;;7;58.3
53699;BME280;68408;53.952;27.612;2024-03-17T22:24:48;1014.1;;;7;58.3
53699;BME280;68408;53.952;27.612;2024-03-17T22:30:02;1014.1;;;6.9;58.5
53699;BME280;68408;53.952;27.612;2024-03-17T22:34:48;1014.1;;;6.8;58.8
53699;BME280;68408;53.952;27.612;2024-03-17T22:39:58;1014.1;;;6.8;58.8
53699;BME280;68408;53.952;27.612;2024-03-17T22:44:50;1014.1;;;6.6;59.1
53699;BME280;68408;53.952;27.612;2024-03-17T22:50:02;1014.1;;;6.5;59.4
53699;BME280;68408;53.952;27.612;2024-03-17T22:54:40;1014.1;;;6.6;59.5
53699;BME280;68408;53.952;27.612;2024-03-17T23:00:12;1014.1;;;6.5;59.8
53699;BME280;68408;53.952;27.612;2024-03-17T23:05:12;1014.1;;;6.4;60
53699;BME280;68408;53.952;27.612;2024-03-17T23:09:34;1014.1;;;6.4;60
53699;BME280;68408;53.952;27.612;2024-03-17T23:14:40;1014.1;;;6.4;60.1
53699;BME280;68408;53.952;27.612;2024-03-17T23:19:43;1014.1;;;6.4;60.3
53699;BME280;68408;53.952;27.612;2024-03-17T23:25:02;1014.1;;;6.4;60.3
53699;BME280;68408;53.952;27.612;2024-03-17T23:29:40;1014.1;;;6.4;60.3
53699;BME280;68408;53.952;27.612;2024-03-17T23:34:32;1014.1;;;6.4;60.4
53699;BME280;68408;53.952;27.612;2024-03-17T23:39:40;1014.1;;;6.2;60.7
53699;BME280;68408;53.952;27.612;2024-03-17T23:44:42;1014.1;;;6.1;61.1
53699;BME280;68408;53.952;27.612;2024-03-17T23:49:40;1014.1;;;6;61.3
53699;BME280;68408;53.952;27.612;2024-03-17T23:55:08;1014.1;;;5.8;61.9
